Time;durP1;ratioP1;P1;durP2;ratioP2;P2;SDS_P1;SDS_P2;PMS_P1;PMS_P2;Temp;Humidity;BMP_temperature;BMP_pressure;BME280_temperature;BME280_humidity;BME280_pressure;Samples;Min_cycle;Max_cycle;Signal;HPM_P1;HPM_P2
2021/09/23 00:00:12;;;;;;;3.15;1.42;;;10.90;99.90;;;;;;5106938;28;20027;-77
2021/09/23 00:05:20;;;;;;;3.15;1.92;;;11.00;99.90;;;;;;5106680;28;20425;-76
2021/09/23 00:07:47;;;;;;;3.25;1.85;;;11.00;99.90;;;;;;5107136;28;20030;-79
2021/09/23 00:10:17;;;;;;;3.28;1.88;;;11.00;99.90;;;;;;5105718;28;20068;-80
2021/09/23 00:12:43;;;;;;;4.22;1.85;;;11.00;99.90;;;;;;5105300;28;20587;-79
2021/09/23 00:15:09;;;;;;;;;;;11.00;99.90;;;;;;5107794;28;20579;-79
2021/09/23 00:17:34;;;;;;;3.33;1.92;;;11.00;99.90;;;;;;5105056;28;19922;-80
2021/09/23 00:20:00;;;;;;;;;;;11.00;99.90;;;;;;5106103;28;20027;-80
2021/09/23 00:22:26;;;;;;;1.83;1.15;;;11.00;99.90;;;;;;5107324;28;19915;-80
2021/09/23 00:24:51;;;;;;;;;;;11.00;99.90;;;;;;5107401;28;20034;-79
2021/09/23 00:27:17;;;;;;;2.95;1.70;;;11.00;99.90;;;;;;5106829;28;19908;-80
2021/09/23 00:29:42;;;;;;;;;;;11.00;99.90;;;;;;5106151;28;20125;-78
2021/09/23 00:32:08;;;;;;;2.95;1.50;;;11.10;99.90;;;;;;5107038;28;19911;-81
2021/09/23 00:34:34;;;;;;;;;;;11.00;99.90;;;;;;5107134;28;20507;-80
2021/09/23 00:36:59;;;;;;;9.60;2.00;;;11.10;99.90;;;;;;5106658;28;19976;-79
2021/09/23 00:39:25;;;;;;;;;;;11.00;99.90;;;;;;5106103;28;20059;-81
2021/09/23 00:41:51;;;;;;;4.55;2.35;;;11.10;99.90;;;;;;5104701;28;19915;-82
2021/09/23 00:44:22;;;;;;;4.72;1.92;;;11.10;99.90;;;;;;5105379;28;20020;-82
2021/09/23 00:46:50;;;;;;;4.00;1.77;;;11.00;99.90;;;;;;5105732;28;20084;-82
2021/09/23 00:49:17;;;;;;;3.17;1.88;;;11.00;99.90;;;;;;5106608;28;20687;-82
2021/09/23 00:51:46;;;;;;;3.20;2.03;;;11.00;99.90;;;;;;5107473;28;20023;-82
2021/09/23 00:54:12;;;;;;;4.78;2.22;;;11.00;99.90;;;;;;5108903;28;20020;-82
2021/09/23 00:56:38;;;;;;;;;;;11.00;99.90;;;;;;5108841;28;20043;-83
2021/09/23 00:59:04;;;;;;;3.47;1.98;;;11.00;99.90;;;;;;5108524;28;19915;-81
2021/09/23 01:01:30;;;;;;;3.40;1.90;;;10.90;99.90;;;;;;5109821;28;20046;-79
2021/09/23 01:03:56;;;;;;;;;;;10.90;99.90;;;;;;5110755;28;20024;-79
2021/09/23 01:06:22;;;;;;;3.63;2.33;;;11.00;99.90;;;;;;5110534;28;19910;-79
2021/09/23 01:08:54;;;;;;;;;;;10.90;99.90;;;;;;5110430;28;20559;-82
2021/09/23 01:11:20;;;;;;;4.05;1.95;;;10.90;99.90;;;;;;5109546;28;19907;-83
2021/09/23 01:13:46;;;;;;;3.95;2.08;;;10.90;99.90;;;;;;5109524;28;20051;-81
2021/09/23 01:16:12;;;;;;;;;;;10.80;99.90;;;;;;5109204;28;20119;-82
2021/09/23 01:18:39;;;;;;;4.65;1.65;;;10.90;99.90;;;;;;5109622;28;19927;-82
2021/09/23 01:21:05;;;;;;;2.72;1.73;;;10.80;99.90;;;;;;5108579;28;20032;-83
2021/09/23 01:23:36;;;;;;;3.80;1.50;;;10.90;99.90;;;;;;5109458;28;20040;-81
2021/09/23 01:26:04;;;;;;;3.22;1.63;;;10.90;99.90;;;;;;5109094;28;20020;-81
2021/09/23 01:28:30;;;;;;;6.97;2.28;;;10.90;99.90;;;;;;5109129;28;20027;-81
2021/09/23 01:30:55;;;;;;;;;;;10.80;99.90;;;;;;5109829;28;20034;-80
2021/09/23 01:33:21;;;;;;;4.00;2.60;;;10.80;99.90;;;;;;5108050;28;20061;-80
2021/09/23 01:35:47;;;;;;;;;;;10.70;99.90;;;;;;5109251;28;20042;-80
2021/09/23 01:38:12;;;;;;;3.30;1.88;;;10.60;99.90;;;;;;5107377;28;20373;-80
2021/09/23 01:40:38;;;;;;;;;;;10.60;99.90;;;;;;5107953;28;20830;-81
2021/09/23 01:43:04;;;;;;;3.88;2.03;;;10.60;99.90;;;;;;5108800;28;20014;-81
2021/09/23 01:45:29;;;;;;;;;;;10.50;99.90;;;;;;5109890;28;20112;-81
2021/09/23 01:47:55;;;;;;;3.58;2.20;;;10.50;99.90;;;;;;5107880;28;20592;-82
2021/09/23 01:50:21;;;;;;;;;;;10.50;99.90;;;;;;5109294;28;20028;-80
2021/09/23 01:52:46;;;;;;;4.82;2.58;;;10.40;99.90;;;;;;5109037;28;20031;-82
2021/09/23 01:55:12;;;;;;;;;;;10.40;99.90;;;;;;5108786;28;20384;-80
2021/09/23 01:57:38;;;;;;;5.13;2.75;;;10.30;99.90;;;;;;5108318;28;20380;-80
2021/09/23 02:00:05;;;;;;;6.22;3.10;;;10.30;99.90;;;;;;5108663;28;20035;-81
2021/09/23 02:02:31;;;;;;;4.72;2.45;;;10.20;99.90;;;;;;5107771;28;20039;-82
2021/09/23 02:04:56;;;;;;;;;;;10.10;99.90;;;;;;5109488;28;20019;-81
2021/09/23 02:07:22;;;;;;;4.78;2.63;;;10.00;99.90;;;;;;5109560;28;19939;-81
2021/09/23 02:09:48;;;;;;;;;;;9.90;99.90;;;;;;5109265;28;20023;-81
2021/09/23 02:12:14;;;;;;;4.97;2.78;;;9.90;99.90;;;;;;5109545;28;19962;-82
2021/09/23 02:14:39;;;;;;;;;;;9.80;99.90;;;;;;5108430;28;20507;-82
2021/09/23 02:17:05;;;;;;;5.28;2.88;;;9.80;99.90;;;;;;5109094;28;20302;-83
2021/09/23 02:19:30;;;;;;;;;;;9.70;99.90;;;;;;5109344;28;20581;-82
2021/09/23 02:21:56;;;;;;;4.60;3.05;;;9.70;99.90;;;;;;5108606;28;19959;-82
2021/09/23 02:24:22;;;;;;;5.03;3.13;;;9.60;99.90;;;;;;5107839;28;20024;-83
2021/09/23 02:26:47;;;;;;;;;;;9.50;99.90;;;;;;5108920;28;20496;-81
2021/09/23 02:29:13;;;;;;;6.30;3.13;;;9.40;99.90;;;;;;5107999;28;19953;-81
2021/09/23 02:31:38;;;;;;;;;;;9.40;99.90;;;;;;5108732;28;20106;-78
2021/09/23 02:34:04;;;;;;;4.65;3.13;;;9.30;99.90;;;;;;5107141;28;19996;-78
2021/09/23 02:36:30;;;;;;;;;;;9.30;99.90;;;;;;5109101;28;20115;-78
2021/09/23 02:38:55;;;;;;;5.13;2.97;;;9.20;99.90;;;;;;5108475;28;19908;-80
2021/09/23 02:41:21;;;;;;;;;;;9.20;99.90;;;;;;5108318;28;20024;-80
2021/09/23 02:43:46;;;;;;;4.35;2.95;;;9.10;99.90;;;;;;5108683;28;19918;-80
2021/09/23 02:46:12;;;;;;;;;;;9.10;99.90;;;;;;5109686;28;20047;-81
2021/09/23 02:48:37;;;;;;;7.10;3.50;;;9.00;99.90;;;;;;5108642;28;20100;-80
2021/09/23 02:51:06;;;;;;;7.85;3.25;;;8.90;99.90;;;;;;5108876;28;20297;-79
2021/09/23 02:53:32;;;;;;;4.32;3.15;;;8.80;99.90;;;;;;5108870;28;20035;-79
2021/09/23 02:55:57;;;;;;;;;;;8.70;99.90;;;;;;5107183;28;20030;-81
2021/09/23 02:58:23;;;;;;;7.20;3.55;;;8.70;99.90;;;;;;5111237;28;19908;-78
2021/09/23 03:00:49;;;;;;;;;;;8.60;99.90;;;;;;5108210;28;20043;-79
2021/09/23 03:03:14;;;;;;;5.18;3.60;;;8.50;99.90;;;;;;5106748;28;19942;-79
2021/09/23 03:05:41;;;;;;;;;;;8.40;99.90;;;;;;5108342;28;20384;-80
2021/09/23 03:08:06;;;;;;;4.50;3.13;;;8.40;99.90;;;;;;5101868;28;19939;-80
2021/09/23 03:10:32;;;;;;;;;;;8.30;99.90;;;;;;5096303;28;20062;-80
2021/09/23 03:12:58;;;;;;;5.40;3.38;;;8.30;99.90;;;;;;5104152;28;20470;-79
2021/09/23 03:15:24;;;;;;;;;;;8.30;99.90;;;;;;5102550;28;20032;-79
2021/09/23 03:17:49;;;;;;;5.55;3.15;;;8.10;99.90;;;;;;5102214;28;19923;-79
2021/09/23 03:20:15;;;;;;;;;;;8.00;99.90;;;;;;5102546;28;20024;-80
2021/09/23 03:22:41;;;;;;;5.38;3.55;;;8.00;99.90;;;;;;5099133;28;20348;-80
2021/09/23 03:25:07;;;;;;;5.82;3.50;;;8.00;99.90;;;;;;5101103;28;20031;-81
2021/09/23 03:27:33;;;;;;;;;;;7.90;99.90;;;;;;5105206;28;20016;-80
2021/09/23 03:29:58;;;;;;;4.00;2.72;;;7.80;99.90;;;;;;5104363;28;20366;-79
2021/09/23 03:32:24;;;;;;;;;;;7.70;99.90;;;;;;5103751;28;20049;-79
2021/09/23 03:34:50;;;;;;;4.75;3.08;;;7.60;99.90;;;;;;5102745;28;20006;-79
2021/09/23 03:37:15;;;;;;;3.85;3.15;;;7.60;99.90;;;;;;5103657;28;20020;-80
2021/09/23 03:39:41;;;;;;;;;;;7.50;99.90;;;;;;5103568;28;20046;-80
2021/09/23 03:42:06;;;;;;;5.78;3.28;;;7.40;99.90;;;;;;5103948;28;20410;-80
2021/09/23 03:44:32;;;;;;;6.28;3.97;;;7.40;99.90;;;;;;5103701;28;20106;-79
2021/09/23 03:46:58;;;;;;;;;;;7.40;99.90;;;;;;5104063;28;20199;-79
2021/09/23 03:49:24;;;;;;;6.88;3.40;;;7.40;99.90;;;;;;5102545;28;19919;-80
2021/09/23 03:51:50;;;;;;;8.55;4.38;;;7.30;99.90;;;;;;5102151;28;20024;-79
2021/09/23 03:54:16;;;;;;;7.35;4.10;;;7.30;99.90;;;;;;5102964;28;20473;-80
2021/09/23 03:56:41;;;;;;;;;;;7.20;99.90;;;;;;5103782;28;20117;-78
2021/09/23 03:59:07;;;;;;;5.32;3.75;;;7.20;99.90;;;;;;5102034;28;19935;-79
2021/09/23 04:01:33;;;;;;;8.05;4.35;;;7.20;99.90;;;;;;5101912;28;20039;-78
2021/09/23 04:03:58;;;;;;;;;;;7.20;99.90;;;;;;5104015;28;20042;-79
2021/09/23 04:06:24;;;;;;;5.97;3.72;;;7.20;99.90;;;;;;5102691;28;19990;-79
2021/09/23 04:08:49;;;;;;;7.93;3.53;;;7.20;99.90;;;;;;5101809;28;20528;-79
2021/09/23 04:11:15;;;;;;;5.82;3.58;;;7.10;99.90;;;;;;5102110;28;20403;-78
2021/09/23 04:13:41;;;;;;;;;;;7.20;99.90;;;;;;5103356;28;20057;-79
2021/09/23 04:16:07;;;;;;;6.10;4.05;;;7.10;99.90;;;;;;5103272;28;19908;-79
2021/09/23 04:18:32;;;;;;;8.57;4.63;;;7.00;99.90;;;;;;5101845;28;20096;-79
2021/09/23 04:20:58;;;;;;;;;;;7.00;99.90;;;;;;5102483;28;20059;-79
2021/09/23 04:23:23;;;;;;;13.43;5.53;;;6.90;99.90;;;;;;5102479;28;19947;-81
2021/09/23 04:25:49;;;;;;;8.13;4.22;;;6.70;99.90;;;;;;5103413;28;20030;-80
2021/09/23 04:28:15;;;;;;;;;;;6.70;99.90;;;;;;5106608;28;20034;-80
2021/09/23 04:30:40;;;;;;;6.05;4.22;;;6.60;99.90;;;;;;5107199;28;20354;-80
2021/09/23 04:33:06;;;;;;;;;;;6.50;99.90;;;;;;5106618;28;20035;-80
2021/09/23 04:35:31;;;;;;;6.65;4.10;;;6.50;99.90;;;;;;5105987;28;19904;-78
2021/09/23 04:37:57;;;;;;;;;;;6.40;99.90;;;;;;5107786;28;20028;-80
2021/09/23 04:40:23;;;;;;;10.27;6.13;;;6.40;99.90;;;;;;5107657;28;19908;-82
2021/09/23 04:42:48;;;;;;;;;;;6.40;99.90;;;;;;5108598;28;20043;-80
2021/09/23 04:45:15;;;;;;;7.75;5.57;;;6.40;99.90;;;;;;5106957;28;19957;-77
2021/09/23 04:47:41;;;;;;;9.82;6.70;;;6.40;99.90;;;;;;5104489;28;20567;-76
2021/09/23 04:50:07;;;;;;;;;;;6.40;99.90;;;;;;5107029;28;20111;-79
2021/09/23 04:52:32;;;;;;;9.85;6.00;;;6.40;99.90;;;;;;5108965;28;19911;-80
2021/09/23 04:54:58;;;;;;;;;;;6.50;99.90;;;;;;5107483;28;20185;-79
2021/09/23 04:57:23;;;;;;;10.30;6.53;;;6.50;99.90;;;;;;5104860;28;20177;-79
2021/09/23 04:59:49;;;;;;;;;;;6.50;99.90;;;;;;5107280;28;20788;-78
2021/09/23 05:02:15;;;;;;;12.90;6.90;;;6.50;99.90;;;;;;5106122;28;19994;-79
2021/09/23 05:04:44;;;;;;;11.30;5.75;;;6.60;99.90;;;;;;5106284;28;20036;-79
2021/09/23 05:07:10;;;;;;;8.50;5.93;;;6.60;99.90;;;;;;5107934;28;20027;-79
2021/09/23 05:09:37;;;;;;;;;;;6.80;99.90;;;;;;5108642;28;20023;-79
2021/09/23 05:12:03;;;;;;;14.23;7.25;;;6.80;99.90;;;;;;5110056;28;20017;-80
2021/09/23 05:14:29;;;;;;;15.00;7.88;;;6.90;99.90;;;;;;5109083;28;20503;-79
2021/09/23 05:16:56;;;;;;;13.48;6.57;;;6.90;99.90;;;;;;5109933;28;20785;-79
2021/09/23 05:19:22;;;;;;;11.75;6.97;;;7.00;99.90;;;;;;5108304;28;20116;-79
2021/09/23 05:21:47;;;;;;;12.10;7.28;;;7.00;99.90;;;;;;5109161;28;20047;-78
2021/09/23 05:24:16;;;;;;;;;;;7.20;99.90;;;;;;5109758;28;20395;-79
2021/09/23 05:26:43;;;;;;;9.80;6.20;;;7.20;99.90;;;;;;5109760;28;19903;-79
2021/09/23 05:29:08;;;;;;;9.63;6.25;;;7.30;99.90;;;;;;5108447;28;20522;-79
2021/09/23 05:31:35;;;;;;;;;;;7.40;99.90;;;;;;5110186;28;20134;-78
2021/09/23 05:34:02;;;;;;;10.43;5.83;;;7.50;99.90;;;;;;5108946;28;19908;-78
2021/09/23 05:36:28;;;;;;;8.50;5.47;;;7.70;99.90;;;;;;5109175;28;20322;-79
2021/09/23 05:38:58;;;;;;;;;;;7.90;99.90;;;;;;5107063;28;20032;-80
2021/09/23 05:41:24;;;;;;;6.60;4.40;;;8.10;99.90;;;;;;5108158;28;19912;-78
2021/09/23 05:43:49;;;;;;;;;;;8.40;99.90;;;;;;5107619;28;20032;-81
2021/09/23 05:46:16;;;;;;;7.70;4.75;;;8.60;99.90;;;;;;5108148;28;20074;-80
2021/09/23 05:48:41;;;;;;;8.25;5.57;;;8.80;99.90;;;;;;5108823;28;20023;-80
2021/09/23 05:51:07;;;;;;;;;;;9.00;99.90;;;;;;5109304;28;20020;-81
2021/09/23 05:53:33;;;;;;;9.40;6.07;;;9.20;99.90;;;;;;5108594;28;19904;-82
2021/09/23 05:55:58;;;;;;;;;;;9.30;99.90;;;;;;5109038;28;20051;-82
2021/09/23 05:58:24;;;;;;;11.07;7.45;;;9.40;99.90;;;;;;5108920;28;19904;-81
2021/09/23 06:00:49;;;;;;;;;;;9.50;99.90;;;;;;5108961;28;20032;-81
2021/09/23 06:03:15;;;;;;;14.98;8.73;;;9.70;99.90;;;;;;5108750;28;20032;-82
2021/09/23 06:05:41;;;;;;;12.85;6.85;;;9.80;99.90;;;;;;5108112;28;20756;-82
2021/09/23 06:08:06;;;;;;;;;;;10.00;99.90;;;;;;5108806;28;20023;-80
2021/09/23 06:10:32;;;;;;;7.00;4.68;;;10.10;99.90;;;;;;5108721;28;20049;-81
2021/09/23 06:12:58;;;;;;;;;;;10.30;99.90;;;;;;5107587;28;20027;-82
2021/09/23 06:15:23;;;;;;;9.88;4.72;;;10.40;99.90;;;;;;5108557;28;19915;-81
2021/09/23 06:17:49;;;;;;;;;;;10.60;99.90;;;;;;5107437;28;20403;-81
2021/09/23 06:20:15;;;;;;;9.82;6.18;;;11.00;99.90;;;;;;5106898;28;19991;-82
2021/09/23 06:22:40;;;;;;;;;;;11.30;99.90;;;;;;5108343;28;20039;-82
2021/09/23 06:25:07;;;;;;;7.75;5.82;;;11.80;99.90;;;;;;5108322;28;19904;-82
2021/09/23 06:27:32;;;;;;;7.20;4.70;;;12.30;99.90;;;;;;5108363;28;20034;-79
2021/09/23 06:29:58;;;;;;;;;;;13.20;99.00;;;;;;5108359;28;20027;-80
2021/09/23 06:32:23;;;;;;;7.20;4.22;;;14.00;95.60;;;;;;5108578;28;19908;-79
2021/09/23 06:34:49;;;;;;;;;;;15.10;93.30;;;;;;5107567;28;20077;-81
2021/09/23 06:37:15;;;;;;;7.07;3.17;;;16.00;87.70;;;;;;5105911;28;19943;-79
2021/09/23 06:39:40;;;;;;;6.80;3.25;;;16.80;84.00;;;;;;5107729;28;20030;-80
2021/09/23 06:42:06;;;;;;;3.60;2.75;;;17.50;75.70;;;;;;5106338;28;20438;-80
2021/09/23 06:44:33;;;;;;;3.05;1.85;;;17.80;73.20;;;;;;5108042;28;20479;-80
2021/09/23 06:46:58;;;;;;;3.55;2.33;;;18.50;71.00;;;;;;5107864;28;20094;-79
2021/09/23 06:49:25;;;;;;;4.63;2.97;;;19.10;66.30;;;;;;5107300;28;20114;-80
2021/09/23 06:51:51;;;;;;;7.70;6.97;;;19.30;63.00;;;;;;5106859;28;20027;-80
2021/09/23 06:54:18;;;;;;;3.80;2.65;;;19.80;60.30;;;;;;5111273;28;20020;-80
2021/09/23 06:56:43;;;;;;;4.15;2.38;;;20.50;58.20;;;;;;5107637;28;20037;-79
2021/09/23 06:59:09;;;;;;;4.00;2.78;;;20.90;55.00;;;;;;5107331;28;20800;-80
2021/09/23 07:01:36;;;;;;;6.25;3.13;;;21.10;54.50;;;;;;5106732;28;20463;-80
2021/09/23 07:04:02;;;;;;;2.03;1.83;;;21.40;54.10;;;;;;5105766;28;20118;-80
2021/09/23 07:06:28;;;;;;;4.55;2.33;;;21.80;49.10;;;;;;5106903;28;20130;-79
2021/09/23 07:08:53;;;;;;;3.20;2.75;;;22.20;47.40;;;;;;5106961;28;20035;-79
2021/09/23 07:11:19;;;;;;;3.83;2.20;;;22.50;47.00;;;;;;5107505;28;20036;-80
2021/09/23 07:13:45;;;;;;;5.80;2.05;;;22.70;47.20;;;;;;5107259;28;20547;-79
2021/09/23 07:16:10;;;;;;;3.08;2.05;;;23.00;46.00;;;;;;5107331;28;20504;-80
2021/09/23 07:18:36;;;;;;;3.10;2.45;;;23.20;44.50;;;;;;5106950;28;20458;-80
2021/09/23 07:21:03;;;;;;;3.13;2.22;;;23.30;41.30;;;;;;5106747;28;20092;-79
2021/09/23 07:23:28;;;;;;;2.33;1.60;;;23.50;40.80;;;;;;5106692;28;20042;-80
2021/09/23 07:25:54;;;;;;;3.00;2.30;;;23.80;40.60;;;;;;5107170;28;20020;-80
2021/09/23 07:28:20;;;;;;;2.88;2.30;;;23.90;38.70;;;;;;5105228;28;20027;-80
2021/09/23 07:30:46;;;;;;;2.33;1.92;;;24.50;38.10;;;;;;5106777;28;20457;-80
2021/09/23 07:33:12;;;;;;;2.67;2.15;;;24.90;38.20;;;;;;5107055;28;20441;-81
2021/09/23 07:35:38;;;;;;;2.28;2.03;;;25.20;37.80;;;;;;5106258;28;20625;-81
2021/09/23 07:38:03;;;;;;;2.47;1.90;;;25.30;37.00;;;;;;5106163;28;20066;-81
2021/09/23 07:40:29;;;;;;;4.50;2.67;;;25.80;36.20;;;;;;5107126;28;20031;-80
2021/09/23 07:42:55;;;;;;;3.00;1.90;;;26.00;38.30;;;;;;5106811;28;20035;-80
2021/09/23 07:45:21;;;;;;;5.90;4.65;;;25.40;38.70;;;;;;5106532;28;20618;-79
2021/09/23 07:47:46;;;;;;;2.63;2.17;;;25.00;39.90;;;;;;5106669;28;20503;-80
2021/09/23 07:50:12;;;;;;;5.25;2.53;;;24.50;40.40;;;;;;5104837;28;20472;-79
2021/09/23 07:52:38;;;;;;;6.93;3.28;;;24.50;41.90;;;;;;5105923;28;20024;-78
2021/09/23 07:55:05;;;;;;;3.40;2.38;;;24.50;41.90;;;;;;5106655;28;20024;-80
2021/09/23 07:57:32;;;;;;;3.80;2.58;;;24.40;41.60;;;;;;5106728;28;20480;-80
2021/09/23 07:59:57;;;;;;;3.35;2.10;;;24.50;40.60;;;;;;5106395;28;20024;-81
2021/09/23 08:02:23;;;;;;;2.97;2.17;;;24.50;40.30;;;;;;5109174;28;20378;-80
2021/09/23 08:04:49;;;;;;;5.97;2.38;;;24.50;39.40;;;;;;5109602;28;20068;-80
2021/09/23 08:07:17;;;;;;;2.78;2.38;;;24.40;39.80;;;;;;5110288;28;20032;-79
2021/09/23 08:09:46;;;;;;;3.15;2.33;;;24.40;40.30;;;;;;5110986;28;20020;-80
2021/09/23 08:12:12;;;;;;;4.10;2.20;;;24.60;41.10;;;;;;5109641;28;20116;-80
2021/09/23 08:14:38;;;;;;;4.70;2.55;;;24.90;39.90;;;;;;5109787;28;20040;-79
2021/09/23 08:17:07;;;;;;;5.43;2.30;;;25.40;39.20;;;;;;5105016;28;20061;-79
2021/09/23 08:19:35;;;;;;;3.17;2.30;;;25.30;37.30;;;;;;5104439;28;20426;-79
2021/09/23 08:22:02;;;;;;;6.20;2.03;;;25.00;37.10;;;;;;5109164;28;20063;-79
2021/09/23 08:24:28;;;;;;;3.40;2.58;;;25.50;36.70;;;;;;5108915;28;20028;-79
2021/09/23 08:26:54;;;;;;;2.30;1.95;;;25.60;35.50;;;;;;5106224;28;20561;-80
2021/09/23 08:29:19;;;;;;;4.10;2.38;;;25.60;35.90;;;;;;5107470;28;20732;-79
2021/09/23 08:31:46;;;;;;;3.63;2.30;;;25.70;35.30;;;;;;5108112;28;20446;-80
2021/09/23 08:34:12;;;;;;;2.50;2.15;;;26.10;33.50;;;;;;5101438;28;20043;-79
2021/09/23 08:36:38;;;;;;;4.72;2.05;;;26.20;33.60;;;;;;5109066;28;20500;-79
2021/09/23 08:39:03;;;;;;;2.53;1.83;;;26.30;32.40;;;;;;5109209;28;20086;-80
2021/09/23 08:41:29;;;;;;;2.42;2.08;;;26.40;32.50;;;;;;5103929;28;20040;-79
2021/09/23 08:43:56;;;;;;;3.03;2.58;;;26.50;32.50;;;;;;5108996;28;20067;-78
2021/09/23 08:46:21;;;;;;;3.03;1.90;;;26.50;32.40;;;;;;5107361;28;20131;-78
2021/09/23 08:48:48;;;;;;;3.83;2.30;;;26.70;32.10;;;;;;5109344;28;20555;-79
2021/09/23 08:51:14;;;;;;;2.55;2.10;;;27.00;32.30;;;;;;5108823;28;20024;-79
2021/09/23 08:53:40;;;;;;;4.18;1.95;;;26.90;31.80;;;;;;5108813;28;20040;-78
2021/09/23 08:56:12;;;;;;;3.08;2.13;;;26.90;32.30;;;;;;5108410;28;20088;-79
2021/09/23 08:58:38;;;;;;;2.10;1.83;;;27.20;32.30;;;;;;5107213;28;20097;-79
2021/09/23 09:01:18;;;;;;;2.38;1.80;;;27.20;31.90;;;;;;5104809;28;20032;-79
2021/09/23 09:03:45;;;;;;;2.63;1.90;;;27.40;32.20;;;;;;5106725;28;20065;-79
2021/09/23 09:06:13;;;;;;;3.63;1.90;;;27.40;31.80;;;;;;5108248;28;20039;-78
2021/09/23 09:08:39;;;;;;;2.03;1.67;;;27.60;31.20;;;;;;5107447;28;20063;-79
2021/09/23 09:11:08;;;;;;;2.50;1.58;;;27.20;30.00;;;;;;5103850;28;20042;-79
2021/09/23 09:13:36;;;;;;;2.25;1.73;;;27.60;30.80;;;;;;5108894;28;20059;-79
2021/09/23 09:16:14;;;;;;;2.90;1.90;;;27.60;30.20;;;;;;5105740;28;20032;-80
2021/09/23 09:18:41;;;;;;;4.78;1.70;;;27.60;30.40;;;;;;5108393;28;20054;-79
2021/09/23 09:21:12;;;;;;;3.08;1.63;;;27.50;30.80;;;;;;5107994;28;20046;-80
2021/09/23 09:23:42;;;;;;;3.72;1.88;;;27.60;31.20;;;;;;5106206;28;20035;-80
2021/09/23 09:26:09;;;;;;;2.63;1.77;;;27.50;30.80;;;;;;5108400;28;20425;-79
2021/09/23 09:28:47;;;;;;;2.55;1.98;;;27.30;31.20;;;;;;5106420;28;20126;-78
2021/09/23 09:31:12;;;;;;;2.65;1.90;;;27.60;30.50;;;;;;5103994;28;20092;-79
2021/09/23 09:33:40;;;;;;;4.47;1.75;;;27.70;30.90;;;;;;5107035;28;20122;-78
2021/09/23 09:36:32;;;;;;;2.10;1.65;;;28.00;30.80;;;;;;5105015;28;20094;-77
2021/09/23 09:39:06;;;;;;;3.33;1.60;;;28.10;29.30;;;;;;5103015;28;20031;-79
2021/09/23 09:41:35;;;;;;;2.50;1.83;;;27.60;29.40;;;;;;5106723;28;20040;-78
2021/09/23 09:44:03;;;;;;;2.83;1.75;;;27.00;30.60;;;;;;5108344;28;20031;-77
2021/09/23 09:46:33;;;;;;;2.30;1.65;;;26.90;31.30;;;;;;5107516;28;20027;-77
2021/09/23 09:49:00;;;;;;;3.85;1.90;;;27.20;32.00;;;;;;5105333;28;20111;-77
2021/09/23 09:51:45;;;;;;;2.45;1.70;;;27.40;32.10;;;;;;5105601;28;20032;-78
2021/09/23 09:54:15;;;;;;;6.15;2.42;;;27.60;31.90;;;;;;5107983;28;20047;-78
2021/09/23 09:56:43;;;;;;;3.15;1.90;;;27.50;32.30;;;;;;5104909;28;20048;-78
2021/09/23 09:59:12;;;;;;;2.83;1.58;;;27.70;32.60;;;;;;5107656;28;20035;-78
2021/09/23 10:01:40;;;;;;;3.10;1.83;;;27.70;32.00;;;;;;5106336;28;20575;-79
2021/09/23 10:04:07;;;;;;;3.17;1.85;;;28.00;32.00;;;;;;5101946;28;20046;-78
2021/09/23 10:06:33;;;;;;;3.03;1.95;;;28.20;31.30;;;;;;5102925;28;20027;-78
2021/09/23 10:08:59;;;;;;;2.30;1.88;;;28.30;31.20;;;;;;5107411;28;20088;-78
2021/09/23 10:11:25;;;;;;;2.28;1.80;;;28.30;31.00;;;;;;5106058;28;20035;-78
2021/09/23 10:13:53;;;;;;;3.35;1.85;;;27.80;31.40;;;;;;5105662;28;20724;-78
2021/09/23 10:16:20;;;;;;;1.85;1.55;;;27.60;31.80;;;;;;5106590;28;20032;-78
2021/09/23 10:18:47;;;;;;;2.20;1.50;;;27.50;32.00;;;;;;5099590;28;20044;-78
2021/09/23 10:21:13;;;;;;;4.47;1.80;;;27.00;32.80;;;;;;5104491;28;20092;-77
2021/09/23 10:23:40;;;;;;;2.67;1.83;;;26.00;33.80;;;;;;5103699;28;20437;-77
2021/09/23 10:26:10;;;;;;;2.28;1.88;;;25.30;35.00;;;;;;5104741;28;20040;-77
2021/09/23 10:28:37;;;;;;;2.40;2.10;;;24.50;36.60;;;;;;5105676;28;20050;-77
2021/09/23 10:31:10;;;;;;;3.15;2.28;;;23.90;38.20;;;;;;5106957;28;20576;-78
2021/09/23 10:33:37;;;;;;;2.50;1.75;;;23.20;39.30;;;;;;5101617;28;20527;-77
2021/09/23 10:36:04;;;;;;;3.83;2.20;;;22.60;40.10;;;;;;5104640;28;20514;-78
2021/09/23 10:38:30;;;;;;;2.90;1.80;;;22.20;41.60;;;;;;5107159;28;20032;-79
2021/09/23 10:40:56;;;;;;;4.18;2.15;;;21.90;42.30;;;;;;5108098;28;20035;-79
2021/09/23 10:43:21;;;;;;;2.60;1.65;;;21.50;42.30;;;;;;5106847;28;20066;-78
2021/09/23 10:45:49;;;;;;;2.65;1.90;;;21.20;43.10;;;;;;5106354;28;20449;-78
2021/09/23 10:48:17;;;;;;;4.18;2.20;;;21.00;44.10;;;;;;5108028;28;20035;-79
2021/09/23 10:50:43;;;;;;;3.33;1.77;;;20.80;45.40;;;;;;5106026;28;20085;-78
2021/09/23 10:53:10;;;;;;;7.97;1.80;;;20.70;45.90;;;;;;5106268;28;20027;-79
2021/09/23 10:55:38;;;;;;;3.88;1.45;;;20.50;46.00;;;;;;5106058;28;20099;-78
2021/09/23 10:58:06;;;;;;;2.63;1.58;;;20.40;46.50;;;;;;5106555;28;20027;-79
2021/09/23 11:00:34;;;;;;;1.98;1.60;;;20.40;46.70;;;;;;5107851;28;20029;-78
2021/09/23 11:03:08;;;;;;;4.38;2.00;;;20.50;46.90;;;;;;5105928;28;20055;-78
2021/09/23 11:05:34;;;;;;;2.38;1.40;;;20.40;46.00;;;;;;5107309;28;20020;-79
2021/09/23 11:08:05;;;;;;;2.33;1.50;;;20.40;47.30;;;;;;5089552;28;20031;-79
2021/09/23 11:10:31;;;;;;;3.53;1.50;;;20.40;47.40;;;;;;5106069;28;20427;-79
2021/09/23 11:12:58;;;;;;;3.00;1.70;;;20.40;47.00;;;;;;5107586;28;20036;-78
2021/09/23 11:15:27;;;;;;;2.17;1.30;;;20.30;47.50;;;;;;5107574;28;20028;-79
2021/09/23 11:17:58;;;;;;;4.82;1.60;;;20.30;47.50;;;;;;5107253;28;20051;-78
2021/09/23 11:20:29;;;;;;;4.57;1.33;;;20.30;47.90;;;;;;5107200;28;20028;-79
2021/09/23 11:23:13;;;;;;;2.88;1.58;;;20.30;48.20;;;;;;5105749;28;20458;-78
2021/09/23 11:25:46;;;;;;;3.97;1.50;;;20.30;48.50;;;;;;5105494;28;20027;-80
2021/09/23 11:28:12;;;;;;;2.65;1.50;;;20.30;48.40;;;;;;5105951;28;20067;-80
2021/09/23 11:30:38;;;;;;;2.92;1.52;;;20.20;48.50;;;;;;5105419;28;20058;-81
2021/09/23 11:33:07;;;;;;;3.25;1.50;;;20.10;48.70;;;;;;5105634;28;20054;-81
2021/09/23 11:35:43;;;;;;;4.55;1.70;;;20.10;48.60;;;;;;5104423;28;20100;-80
2021/09/23 11:38:11;;;;;;;1.90;0.90;;;20.10;49.10;;;;;;5106793;28;20028;-82
2021/09/23 11:40:41;;;;;;;2.55;1.40;;;20.20;49.00;;;;;;5107174;28;20036;-80
2021/09/23 11:43:10;;;;;;;4.75;1.38;;;20.30;48.80;;;;;;5106671;28;20491;-81
2021/09/23 11:45:40;;;;;;;3.08;1.40;;;20.40;49.00;;;;;;5105344;28;20512;-80
2021/09/23 11:48:14;;;;;;;2.88;1.45;;;20.50;48.80;;;;;;5105010;28;20484;-80
2021/09/23 11:50:43;;;;;;;2.50;1.27;;;20.60;48.50;;;;;;5106517;28;20031;-81
2021/09/23 11:53:29;;;;;;;1.33;0.90;;;20.60;49.00;;;;;;5107001;28;20024;-81
2021/09/23 11:56:05;;;;;;;3.22;1.33;;;20.70;48.90;;;;;;5106618;28;20766;-81
2021/09/23 11:58:34;;;;;;;4.97;1.05;;;20.70;48.00;;;;;;5106955;28;20032;-82
2021/09/23 12:01:00;;;;;;;2.15;1.10;;;20.70;48.40;;;;;;5106893;28;20656;-80
2021/09/23 12:03:25;;;;;;;3.25;1.13;;;20.70;48.40;;;;;;5106415;28;20121;-80
2021/09/23 12:05:52;;;;;;;2.58;1.13;;;20.90;48.80;;;;;;5106551;28;20027;-81
2021/09/23 12:08:19;;;;;;;2.10;1.17;;;21.00;48.00;;;;;;5105515;28;20499;-81
2021/09/23 12:10:46;;;;;;;2.67;1.00;;;21.10;48.00;;;;;;5105649;28;20030;-81
2021/09/23 12:13:18;;;;;;;2.90;0.63;;;21.00;48.10;;;;;;5105643;28;20054;-80
2021/09/23 12:15:56;;;;;;;2.88;0.75;;;21.00;48.30;;;;;;5105053;28;20034;-80
2021/09/23 12:18:23;;;;;;;2.47;0.88;;;20.90;47.70;;;;;;5105615;28;20065;-80
2021/09/23 12:20:50;;;;;;;1.77;0.90;;;20.70;48.80;;;;;;5104860;28;20024;-80
2021/09/23 12:23:19;;;;;;;2.25;0.90;;;20.50;48.90;;;;;;5105250;28;20036;-80
2021/09/23 12:26:13;;;;;;;2.28;0.82;;;20.50;49.20;;;;;;5105179;28;20393;-80
2021/09/23 12:28:42;;;;;;;2.13;0.85;;;20.60;49.40;;;;;;5106627;28;20062;-81
2021/09/23 12:31:11;;;;;;;3.53;0.82;;;20.60;49.20;;;;;;5105339;28;20032;-80
2021/09/23 12:33:52;;;;;;;2.58;1.02;;;20.50;48.90;;;;;;5105630;28;20030;-80
2021/09/23 12:36:19;;;;;;;2.60;0.90;;;20.40;49.00;;;;;;5106728;28;20032;-80
2021/09/23 12:38:44;;;;;;;2.17;0.70;;;20.20;49.50;;;;;;5104864;28;20042;-80
2021/09/23 12:41:22;;;;;;;2.90;0.80;;;20.20;50.20;;;;;;5106281;28;20020;-80
2021/09/23 12:43:49;;;;;;;9.05;1.23;;;20.10;50.20;;;;;;5106507;28;20042;-80
2021/09/23 12:46:16;;;;;;;4.07;1.35;;;20.10;50.50;;;;;;5106621;28;20085;-80
2021/09/23 12:48:43;;;;;;;3.35;0.82;;;20.10;50.90;;;;;;5110066;28;20023;-81
2021/09/23 12:51:10;;;;;;;1.98;0.80;;;20.10;51.80;;;;;;5110413;28;20401;-80
2021/09/23 12:53:36;;;;;;;2.17;0.80;;;20.20;51.70;;;;;;5108479;28;20069;-80
2021/09/23 12:56:04;;;;;;;2.92;0.85;;;20.40;51.60;;;;;;5110476;28;20102;-80
2021/09/23 12:58:29;;;;;;;2.33;0.80;;;20.50;51.30;;;;;;5109023;28;20032;-80
2021/09/23 13:00:56;;;;;;;4.80;1.23;;;20.40;51.40;;;;;;5110230;28;20053;-80
2021/09/23 13:03:22;;;;;;;3.38;0.90;;;20.20;51.60;;;;;;5109564;28;20031;-80
2021/09/23 13:05:48;;;;;;;2.53;1.15;;;20.10;51.70;;;;;;5109601;28;20019;-81